createdAt,value
2022-10-18T00:00:59.000Z,167
2022-10-18T00:02:15.000Z,169
2022-10-18T00:03:30.000Z,170
2022-10-18T00:04:46.000Z,167
2022-10-18T00:06:03.000Z,167
2022-10-18T00:07:19.000Z,169
2022-10-18T00:08:35.000Z,169
2022-10-18T00:09:51.000Z,169
2022-10-18T00:11:08.000Z,169
2022-10-18T00:12:24.000Z,171
2022-10-18T00:13:40.000Z,169
2022-10-18T00:14:55.000Z,167
2022-10-18T00:16:11.000Z,168
2022-10-18T00:17:26.000Z,167
2022-10-18T00:18:41.000Z,168
2022-10-18T00:19:57.000Z,166
2022-10-18T00:21:14.000Z,166
2022-10-18T00:22:30.000Z,166
2022-10-18T00:23:46.000Z,166
2022-10-18T00:25:02.000Z,166
2022-10-18T00:26:18.000Z,169
2022-10-18T00:27:35.000Z,169
2022-10-18T00:28:51.000Z,167
2022-10-18T00:30:07.000Z,170
2022-10-18T00:31:23.000Z,169
2022-10-18T00:32:40.000Z,169
2022-10-18T00:33:56.000Z,168
2022-10-18T00:35:11.000Z,166
2022-10-18T00:36:27.000Z,167
2022-10-18T00:37:44.000Z,169
2022-10-18T00:39:00.000Z,169
2022-10-18T00:40:16.000Z,168
2022-10-18T00:41:32.000Z,167
2022-10-18T00:42:48.000Z,168
2022-10-18T00:44:04.000Z,168
2022-10-18T00:45:19.000Z,167
2022-10-18T00:46:35.000Z,169
2022-10-18T00:47:51.000Z,170
2022-10-18T00:49:06.000Z,170
2022-10-18T00:50:22.000Z,169
2022-10-18T00:51:38.000Z,170
2022-10-18T00:52:54.000Z,169
2022-10-18T00:54:11.000Z,169
2022-10-18T00:55:27.000Z,170
2022-10-18T00:56:43.000Z,171
2022-10-18T00:57:59.000Z,171
2022-10-18T00:59:16.000Z,170
2022-10-18T01:00:32.000Z,169
2022-10-18T01:01:48.000Z,171
2022-10-18T01:03:04.000Z,172
2022-10-18T01:04:21.000Z,172
2022-10-18T01:05:36.000Z,172
2022-10-18T01:06:52.000Z,169
2022-10-18T01:08:08.000Z,169
2022-10-18T01:09:25.000Z,168
2022-10-18T01:10:41.000Z,170
2022-10-18T01:11:57.000Z,169
2022-10-18T01:13:13.000Z,172
2022-10-18T01:14:28.000Z,170
2022-10-18T01:15:44.000Z,170
2022-10-18T01:16:59.000Z,171
2022-10-18T01:18:14.000Z,170
2022-10-18T01:19:30.000Z,169
2022-10-18T01:20:47.000Z,170
2022-10-18T01:22:03.000Z,172
2022-10-18T01:23:19.000Z,170
2022-10-18T01:24:35.000Z,174
2022-10-18T01:25:52.000Z,171
2022-10-18T01:27:08.000Z,170
2022-10-18T01:28:24.000Z,169
2022-10-18T01:29:40.000Z,171
2022-10-18T01:30:57.000Z,173
2022-10-18T01:32:13.000Z,172
2022-10-18T01:33:29.000Z,173
2022-10-18T01:34:44.000Z,170
2022-10-18T01:36:01.000Z,170
2022-10-18T01:37:17.000Z,171
2022-10-18T01:38:33.000Z,172
2022-10-18T01:39:49.000Z,170
2022-10-18T01:41:05.000Z,170
2022-10-18T01:42:22.000Z,172
2022-10-18T01:43:37.000Z,172
2022-10-18T01:44:52.000Z,172
2022-10-18T01:46:08.000Z,173
2022-10-18T01:47:24.000Z,175
2022-10-18T01:48:39.000Z,172
2022-10-18T01:49:55.000Z,171
2022-10-18T01:51:11.000Z,171
2022-10-18T01:52:28.000Z,170
2022-10-18T01:53:44.000Z,171
2022-10-18T01:55:00.000Z,174
2022-10-18T01:56:16.000Z,173
2022-10-18T01:57:33.000Z,173
2022-10-18T01:58:49.000Z,172
2022-10-18T02:00:05.000Z,174
2022-10-18T02:01:21.000Z,173
2022-10-18T02:02:38.000Z,172
2022-10-18T02:03:54.000Z,176
2022-10-18T02:05:09.000Z,174
2022-10-18T02:06:25.000Z,174
2022-10-18T02:07:41.000Z,174
2022-10-18T02:08:58.000Z,174
2022-10-18T02:11:30.000Z,174
2022-10-18T02:12:46.000Z,176
2022-10-18T02:14:03.000Z,172
2022-10-18T02:15:18.000Z,171
2022-10-18T02:16:33.000Z,169
2022-10-18T02:17:49.000Z,171
2022-10-18T02:19:05.000Z,175
2022-10-18T02:20:20.000Z,173
2022-10-18T02:21:36.000Z,171
2022-10-18T02:22:52.000Z,172
2022-10-18T02:24:09.000Z,171
2022-10-18T02:25:25.000Z,173
2022-10-18T02:26:41.000Z,171
2022-10-18T02:27:57.000Z,171
2022-10-18T02:29:14.000Z,173
2022-10-18T02:30:30.000Z,172
2022-10-18T02:31:46.000Z,172
2022-10-18T02:33:02.000Z,174
2022-10-18T02:34:18.000Z,173
2022-10-18T02:35:35.000Z,173
2022-10-18T02:36:51.000Z,173
2022-10-18T02:38:06.000Z,172
2022-10-18T02:39:22.000Z,177
2022-10-18T02:40:39.000Z,177
2022-10-18T02:41:55.000Z,176
2022-10-18T02:43:11.000Z,173
2022-10-18T02:44:27.000Z,176
2022-10-18T02:45:43.000Z,173
2022-10-18T02:46:58.000Z,177
2022-10-18T02:48:13.000Z,177
2022-10-18T02:49:28.000Z,177
2022-10-18T02:50:45.000Z,174
2022-10-18T02:52:01.000Z,175
2022-10-18T02:53:17.000Z,177
2022-10-18T02:54:33.000Z,172
2022-10-18T02:55:50.000Z,177
2022-10-18T02:57:06.000Z,177
2022-10-18T02:58:21.000Z,178
2022-10-18T02:59:37.000Z,177
2022-10-18T03:00:54.000Z,174
2022-10-18T03:02:10.000Z,172
2022-10-18T03:03:26.000Z,173
2022-10-18T03:04:42.000Z,173
2022-10-18T03:05:58.000Z,174
2022-10-18T03:07:15.000Z,177
2022-10-18T03:08:31.000Z,178
2022-10-18T03:09:47.000Z,177
2022-10-18T03:11:03.000Z,174
2022-10-18T03:12:20.000Z,177
2022-10-18T03:13:36.000Z,175
2022-10-18T03:14:51.000Z,176
2022-10-18T03:16:06.000Z,176
2022-10-18T03:17:23.000Z,180
2022-10-18T03:18:39.000Z,178
2022-10-18T03:19:54.000Z,177
2022-10-18T03:21:09.000Z,176
2022-10-18T03:22:26.000Z,179
2022-10-18T03:23:42.000Z,174
2022-10-18T03:24:58.000Z,176
2022-10-18T03:26:14.000Z,178
2022-10-18T03:27:31.000Z,179
2022-10-18T03:28:47.000Z,180
2022-10-18T03:30:03.000Z,180
2022-10-18T03:31:19.000Z,179
2022-10-18T03:32:35.000Z,179
2022-10-18T03:33:52.000Z,176
2022-10-18T03:35:08.000Z,179
2022-10-18T03:36:24.000Z,177
2022-10-18T03:37:39.000Z,175
2022-10-18T03:38:56.000Z,178
2022-10-18T03:40:12.000Z,178
2022-10-18T03:41:28.000Z,178
2022-10-18T03:42:44.000Z,177
2022-10-18T03:44:01.000Z,178
2022-10-18T03:45:17.000Z,178
2022-10-18T03:46:32.000Z,177
2022-10-18T03:47:48.000Z,175
2022-10-18T03:49:05.000Z,177
2022-10-18T03:50:20.000Z,176
2022-10-18T03:51:35.000Z,178
2022-10-18T03:52:51.000Z,178
2022-10-18T03:54:08.000Z,178
2022-10-18T03:55:24.000Z,177
2022-10-18T03:56:40.000Z,177
2022-10-18T03:57:56.000Z,174
2022-10-18T03:59:12.000Z,178
2022-10-18T04:00:29.000Z,177
2022-10-18T04:01:45.000Z,174
2022-10-18T04:03:01.000Z,176
2022-10-18T04:04:17.000Z,177
2022-10-18T04:05:34.000Z,176
2022-10-18T04:06:50.000Z,173
2022-10-18T04:08:05.000Z,174
2022-10-18T04:09:21.000Z,177
2022-10-18T04:10:38.000Z,177
2022-10-18T04:11:54.000Z,173
2022-10-18T04:13:10.000Z,174
2022-10-18T04:14:26.000Z,174
2022-10-18T04:15:43.000Z,174
2022-10-18T04:16:58.000Z,177
2022-10-18T04:18:13.000Z,175
2022-10-18T04:19:29.000Z,178
2022-10-18T04:20:45.000Z,177
2022-10-18T04:22:00.000Z,176
2022-10-18T04:23:16.000Z,175
2022-10-18T04:24:32.000Z,178
2022-10-18T04:25:48.000Z,174
2022-10-18T04:27:05.000Z,177
2022-10-18T04:28:21.000Z,173
2022-10-18T04:29:37.000Z,173
2022-10-18T04:30:53.000Z,177
2022-10-18T04:32:10.000Z,174
2022-10-18T04:33:26.000Z,176
2022-10-18T04:34:42.000Z,174
2022-10-18T04:35:58.000Z,175
2022-10-18T04:37:15.000Z,177
2022-10-18T04:38:30.000Z,176
2022-10-18T04:39:46.000Z,177
2022-10-18T04:41:02.000Z,174
2022-10-18T04:42:19.000Z,174
2022-10-18T04:43:35.000Z,174
2022-10-18T04:44:51.000Z,174
2022-10-18T04:46:07.000Z,178
2022-10-18T04:47:23.000Z,177
2022-10-18T04:48:38.000Z,178
2022-10-18T04:49:53.000Z,176
2022-10-18T04:51:08.000Z,175
2022-10-18T04:52:24.000Z,178
2022-10-18T04:53:41.000Z,174
2022-10-18T04:54:57.464Z,179
2022-10-18T04:56:13.000Z,179
2022-10-18T04:57:29.000Z,179
2022-10-18T04:58:46.000Z,177
2022-10-18T05:00:02.000Z,178
2022-10-18T05:01:18.000Z,178
2022-10-18T05:02:34.000Z,177
2022-10-18T05:03:51.000Z,178
2022-10-18T05:05:07.000Z,177
2022-10-18T05:06:23.000Z,173
2022-10-18T05:07:38.000Z,174
2022-10-18T05:08:55.000Z,177
2022-10-18T05:10:11.000Z,174
2022-10-18T05:11:27.000Z,178
2022-10-18T05:12:43.000Z,177
2022-10-18T05:13:59.000Z,172
2022-10-18T05:15:16.000Z,174
2022-10-18T05:16:31.000Z,174
2022-10-18T05:17:46.000Z,178
2022-10-18T05:19:02.000Z,178
2022-10-18T05:21:34.000Z,178
2022-10-18T05:22:49.000Z,177
2022-10-18T05:24:04.000Z,177
2022-10-18T05:25:21.000Z,174
2022-10-18T05:26:37.000Z,177
2022-10-18T05:27:53.000Z,177
2022-10-18T05:29:09.000Z,174
2022-10-18T05:30:26.000Z,176
2022-10-18T05:31:42.000Z,178
2022-10-18T05:32:58.000Z,176
2022-10-18T05:34:14.000Z,179
2022-10-18T05:35:31.000Z,178
2022-10-18T05:36:47.000Z,182
2022-10-18T05:38:03.000Z,184
2022-10-18T05:39:19.000Z,186
2022-10-18T05:40:35.000Z,187
2022-10-18T05:41:51.000Z,188
2022-10-18T05:43:07.000Z,188
2022-10-18T05:44:23.000Z,191
2022-10-18T05:45:39.000Z,187
2022-10-18T05:46:56.000Z,195
2022-10-18T05:48:12.000Z,196
2022-10-18T05:49:27.000Z,202
2022-10-18T05:50:43.000Z,204
2022-10-18T05:51:59.000Z,212
2022-10-18T05:53:14.000Z,173
2022-10-18T05:54:30.000Z,41
2022-10-18T05:55:46.000Z,44
2022-10-18T05:57:03.000Z,43
2022-10-18T05:58:19.000Z,44
2022-10-18T05:59:35.000Z,46
2022-10-18T06:00:51.000Z,47
2022-10-18T06:02:08.000Z,53
2022-10-18T06:03:24.000Z,60
2022-10-18T06:04:40.000Z,64
2022-10-18T06:05:56.000Z,71
2022-10-18T06:07:13.000Z,86
2022-10-18T06:08:29.000Z,98
2022-10-18T06:09:44.000Z,110
2022-10-18T06:11:00.000Z,117
2022-10-18T06:12:16.000Z,140
2022-10-18T06:13:33.000Z,158
2022-10-18T06:14:49.000Z,170
2022-10-18T06:16:05.000Z,183
2022-10-18T06:17:21.000Z,210
2022-10-18T06:18:38.000Z,239
2022-10-18T06:19:54.000Z,259
2022-10-18T06:21:09.000Z,295
2022-10-18T06:22:24.000Z,350
2022-10-18T06:23:40.000Z,433
2022-10-18T06:24:55.000Z,518
2022-10-18T06:26:11.000Z,588
2022-10-18T06:27:27.000Z,637
2022-10-18T06:28:44.000Z,673
2022-10-18T06:30:00.000Z,708
2022-10-18T06:31:16.000Z,748
2022-10-18T06:32:32.000Z,765
2022-10-18T06:33:49.000Z,759
2022-10-18T06:35:05.000Z,737
2022-10-18T06:36:21.000Z,698
2022-10-18T06:37:37.000Z,668
2022-10-18T06:38:53.000Z,658
2022-10-18T06:40:10.000Z,741
2022-10-18T06:41:26.000Z,877
2022-10-18T06:42:41.000Z,950
2022-10-18T06:43:57.000Z,992
2022-10-18T06:45:14.000Z,927
2022-10-18T06:46:30.000Z,942
2022-10-18T06:47:46.000Z,947
2022-10-18T06:49:02.000Z,952
2022-10-18T06:50:18.000Z,963
2022-10-18T06:51:33.000Z,976
2022-10-18T06:52:48.000Z,959
2022-10-18T06:54:04.000Z,937
2022-10-18T06:55:20.000Z,938
2022-10-18T06:56:36.000Z,938
2022-10-18T06:57:52.000Z,909
2022-10-18T06:59:08.000Z,900
2022-10-18T07:00:25.000Z,933
2022-10-18T07:01:41.000Z,974
2022-10-18T07:02:57.000Z,994
2022-10-18T07:04:13.000Z,1019
2022-10-18T07:05:29.000Z,1059
2022-10-18T07:06:46.000Z,1054
2022-10-18T07:08:02.000Z,1067
2022-10-18T07:09:18.000Z,1112
2022-10-18T07:10:34.000Z,1098
2022-10-18T07:11:50.000Z,1077
2022-10-18T07:13:05.000Z,1059
2022-10-18T07:14:21.000Z,1042
2022-10-18T07:15:37.000Z,1021
2022-10-18T07:16:54.000Z,981
2022-10-18T07:18:10.000Z,943
2022-10-18T07:19:25.000Z,916
2022-10-18T07:20:40.000Z,981
2022-10-18T07:21:57.000Z,996
2022-10-18T07:23:13.000Z,1022
2022-10-18T07:24:29.000Z,1081
2022-10-18T07:25:45.000Z,1134
2022-10-18T07:27:02.000Z,1222
2022-10-18T07:28:18.000Z,1094
2022-10-18T07:29:34.000Z,1069
2022-10-18T07:30:50.000Z,1129
2022-10-18T07:32:06.000Z,1202
2022-10-18T07:33:23.000Z,1285
2022-10-18T07:34:39.000Z,1196
2022-10-18T07:35:55.000Z,1032
2022-10-18T07:37:10.000Z,918
2022-10-18T07:38:27.000Z,1346
2022-10-18T07:39:43.000Z,1828
2022-10-18T07:40:59.000Z,1849
2022-10-18T07:42:15.000Z,2579
2022-10-18T07:43:32.000Z,2232
2022-10-18T07:44:48.000Z,2297
2022-10-18T07:46:03.000Z,2000
2022-10-18T07:47:18.000Z,1966
2022-10-18T07:48:34.000Z,1947
2022-10-18T07:49:49.000Z,2151
2022-10-18T07:51:05.000Z,2015
2022-10-18T07:52:20.000Z,1946
2022-10-18T07:53:36.000Z,1819
2022-10-18T07:54:52.000Z,1892
2022-10-18T07:57:24.000Z,1501
2022-10-18T07:58:41.000Z,1450
2022-10-18T07:59:57.000Z,1410
2022-10-18T08:01:13.000Z,1349
2022-10-18T08:02:29.000Z,734
2022-10-18T08:03:45.000Z,3615
2022-10-18T08:05:02.000Z,4495
2022-10-18T08:06:18.000Z,3731
2022-10-18T08:07:34.000Z,4213
2022-10-18T08:10:07.000Z,4258
2022-10-18T08:11:22.000Z,4491
2022-10-18T08:12:37.000Z,4130
2022-10-18T08:13:53.000Z,5121
2022-10-18T08:15:10.000Z,5060
2022-10-18T08:16:26.000Z,4807
2022-10-18T08:17:42.000Z,5525
2022-10-18T08:18:58.000Z,6055
2022-10-18T08:20:15.000Z,5929
2022-10-18T08:22:47.000Z,5634
2022-10-18T08:24:03.000Z,6336
2022-10-18T08:25:20.000Z,5734
2022-10-18T08:26:36.000Z,6712
2022-10-18T08:27:52.000Z,6981
2022-10-18T08:29:07.000Z,5582
2022-10-18T08:30:23.000Z,5963
2022-10-18T08:31:40.000Z,4516
2022-10-18T08:32:56.000Z,5238
2022-10-18T08:34:12.000Z,6242
2022-10-18T08:35:28.000Z,5762
2022-10-18T08:36:45.000Z,6014
2022-10-18T08:38:01.000Z,5310
2022-10-18T08:39:16.000Z,5845
2022-10-18T08:40:31.000Z,4737
2022-10-18T08:41:47.000Z,3484
2022-10-18T08:43:02.000Z,1841
2022-10-18T08:44:18.000Z,5255
2022-10-18T08:45:34.000Z,6471
2022-10-18T08:48:07.000Z,5685
2022-10-18T08:49:23.000Z,6089
2022-10-18T08:50:39.000Z,6533
2022-10-18T08:51:56.000Z,6487
2022-10-18T08:53:12.000Z,5780
2022-10-18T08:54:28.000Z,6991
2022-10-18T08:55:44.000Z,5917
2022-10-18T08:57:00.000Z,5427
2022-10-18T08:58:17.000Z,5957
2022-10-18T08:59:32.000Z,6982
2022-10-18T09:00:48.000Z,6262
2022-10-18T09:02:04.000Z,6237
2022-10-18T09:03:21.000Z,6060
2022-10-18T09:04:37.000Z,7240
2022-10-18T09:05:53.000Z,6522
2022-10-18T09:07:09.000Z,5561
2022-10-18T09:08:26.000Z,4542
2022-10-18T09:09:41.000Z,4000
2022-10-18T09:10:56.000Z,4229
2022-10-18T09:12:11.000Z,2693
2022-10-18T09:13:28.000Z,5483
2022-10-18T09:14:43.000Z,6274
2022-10-18T09:15:59.000Z,6719
2022-10-18T09:17:15.000Z,6885
2022-10-18T09:18:32.000Z,6766
2022-10-18T09:19:48.000Z,6090
2022-10-18T09:21:04.000Z,7467
2022-10-18T09:22:20.000Z,8862
2022-10-18T09:23:36.000Z,7692
2022-10-18T09:24:53.000Z,6810
2022-10-18T09:26:09.000Z,5964
2022-10-18T09:27:25.000Z,6874
2022-10-18T09:28:41.000Z,7483
2022-10-18T09:29:58.000Z,6336
2022-10-18T09:31:13.000Z,7684
2022-10-18T09:32:29.000Z,7572
2022-10-18T09:33:45.000Z,8262
2022-10-18T09:35:02.000Z,7295
2022-10-18T09:36:18.000Z,8341
2022-10-18T09:37:34.000Z,7242
2022-10-18T09:38:50.000Z,6209
2022-10-18T09:40:06.000Z,7159
2022-10-18T09:41:21.000Z,7825
2022-10-18T09:42:36.000Z,8336
2022-10-18T09:43:51.000Z,6549
2022-10-18T09:45:08.000Z,8410
2022-10-18T09:46:24.000Z,7122
2022-10-18T09:47:40.000Z,7539
2022-10-18T09:48:56.000Z,8402
2022-10-18T09:50:12.000Z,7566
2022-10-18T09:51:29.000Z,6464
2022-10-18T09:52:45.000Z,5536
2022-10-18T09:54:01.000Z,4782
2022-10-18T09:55:17.000Z,4477
2022-10-18T09:56:34.000Z,4743
2022-10-18T09:57:50.000Z,4602
2022-10-18T09:59:06.000Z,5814
2022-10-18T10:00:21.000Z,6574
2022-10-18T10:01:38.000Z,7292
2022-10-18T10:02:54.000Z,6821
2022-10-18T10:04:10.000Z,6787
2022-10-18T10:05:26.000Z,5600
2022-10-18T10:06:43.000Z,4660
2022-10-18T10:07:59.000Z,4010
2022-10-18T10:09:14.000Z,3933
2022-10-18T10:10:29.000Z,4293
2022-10-18T10:11:45.000Z,4791
2022-10-18T10:13:01.000Z,5039
2022-10-18T10:14:16.000Z,5426
2022-10-18T10:15:32.000Z,5085
2022-10-18T10:16:48.000Z,7492
2022-10-18T10:18:05.000Z,8522
2022-10-18T10:19:21.000Z,6085
2022-10-18T10:20:37.000Z,4716
2022-10-18T10:21:53.000Z,4212
2022-10-18T10:23:10.000Z,4375
2022-10-18T10:24:26.000Z,4532
2022-10-18T10:25:42.000Z,4736
2022-10-18T10:26:58.000Z,4972
2022-10-18T10:28:15.000Z,5238
2022-10-18T10:29:31.000Z,5787
2022-10-18T10:30:46.000Z,5482
2022-10-18T10:32:02.000Z,5553
2022-10-18T10:33:19.000Z,6779
2022-10-18T10:34:35.000Z,8665
2022-10-18T10:35:51.000Z,9502
2022-10-18T10:37:07.000Z,8337
2022-10-18T10:38:23.000Z,8373
2022-10-18T10:39:38.000Z,7914
2022-10-18T10:40:53.000Z,8232
2022-10-18T10:42:08.000Z,7749
2022-10-18T10:43:25.000Z,7311
2022-10-18T10:44:41.000Z,8084
2022-10-18T10:45:57.000Z,6349
2022-10-18T10:47:13.000Z,4652
2022-10-18T10:48:29.000Z,3685
2022-10-18T10:49:46.000Z,3150
2022-10-18T10:51:02.000Z,3004
2022-10-18T10:52:18.000Z,3073
2022-10-18T10:53:34.000Z,3130
2022-10-18T10:54:51.000Z,3196
2022-10-18T10:56:07.000Z,3319
2022-10-18T10:57:23.000Z,3609
2022-10-18T10:58:39.000Z,3795
2022-10-18T10:59:55.000Z,3755
2022-10-18T11:01:11.000Z,3751
2022-10-18T11:02:27.000Z,3852
2022-10-18T11:03:43.000Z,4105
2022-10-18T11:04:59.000Z,4440
2022-10-18T11:06:16.000Z,4861
2022-10-18T11:07:31.000Z,5174
2022-10-18T11:08:46.000Z,5636
2022-10-18T11:10:02.000Z,6294
2022-10-18T11:11:17.000Z,7270
2022-10-18T11:12:33.000Z,6950
2022-10-18T11:13:49.000Z,6253
2022-10-18T11:15:05.000Z,5494
2022-10-18T11:16:22.000Z,4759
2022-10-18T11:17:38.000Z,4051
2022-10-18T11:18:54.000Z,3520
2022-10-18T11:20:10.000Z,3077
2022-10-18T11:21:27.000Z,3044
2022-10-18T11:22:43.000Z,3130
2022-10-18T11:23:59.000Z,3104
2022-10-18T11:25:15.000Z,3205
2022-10-18T11:26:32.000Z,3255
2022-10-18T11:27:47.000Z,3272
2022-10-18T11:29:03.000Z,3239
2022-10-18T11:30:19.000Z,3196
2022-10-18T11:31:36.000Z,3200
2022-10-18T11:32:52.000Z,3189
2022-10-18T11:34:08.000Z,3171
2022-10-18T11:35:24.000Z,3162
2022-10-18T11:36:39.000Z,3176
2022-10-18T11:39:11.000Z,3090
2022-10-18T11:40:26.000Z,3072
2022-10-18T11:41:41.000Z,3104
2022-10-18T11:42:58.000Z,3161
2022-10-18T11:44:14.000Z,3361
2022-10-18T11:45:30.000Z,3672
2022-10-18T11:46:46.000Z,3772
2022-10-18T11:48:03.000Z,3467
2022-10-18T11:49:19.000Z,3137
2022-10-18T11:50:35.000Z,3073
2022-10-18T11:51:51.000Z,3079
2022-10-18T11:53:08.000Z,3071
2022-10-18T11:54:24.000Z,3092
2022-10-18T11:55:40.000Z,3129
2022-10-18T11:56:56.000Z,3148
2022-10-18T11:58:13.000Z,3153
2022-10-18T11:59:28.000Z,3158
2022-10-18T12:00:44.000Z,3144
2022-10-18T12:02:00.000Z,3127
2022-10-18T12:03:16.000Z,3126
2022-10-18T12:04:33.000Z,3136
2022-10-18T12:05:49.000Z,3191
2022-10-18T12:07:04.000Z,3283
2022-10-18T12:09:37.000Z,3257
2022-10-18T12:10:53.000Z,3274
2022-10-18T12:12:09.000Z,3312
2022-10-18T12:13:24.000Z,3462
2022-10-18T12:14:40.000Z,3427
2022-10-18T12:15:56.000Z,3365
2022-10-18T12:17:12.000Z,3590
2022-10-18T12:18:28.000Z,3702
2022-10-18T12:19:45.000Z,3749
2022-10-18T12:21:01.000Z,4185
2022-10-18T12:22:17.000Z,3943
2022-10-18T12:23:33.000Z,3384
2022-10-18T12:24:50.000Z,3205
2022-10-18T12:26:06.000Z,3109
2022-10-18T12:27:22.000Z,3070
2022-10-18T12:28:38.000Z,2941
2022-10-18T12:29:54.000Z,2820
2022-10-18T12:31:10.000Z,2804
2022-10-18T12:32:26.000Z,2803
2022-10-18T12:33:42.000Z,2794
2022-10-18T12:34:58.000Z,2746
2022-10-18T12:36:15.144Z,2839
2022-10-18T12:37:31.000Z,3099
2022-10-18T12:38:47.000Z,3173
2022-10-18T12:40:02.000Z,3171
2022-10-18T12:41:18.000Z,3184
2022-10-18T12:42:33.000Z,3162
2022-10-18T12:43:48.000Z,3009
2022-10-18T12:45:04.000Z,2922
2022-10-18T12:46:21.000Z,2898
2022-10-18T12:47:37.000Z,2916
2022-10-18T12:48:53.000Z,2908
2022-10-18T12:50:09.000Z,2862
2022-10-18T12:51:26.000Z,2882
2022-10-18T12:52:42.000Z,2995
2022-10-18T12:53:58.000Z,2992
2022-10-18T12:55:14.000Z,2864
2022-10-18T12:56:30.000Z,2845
2022-10-18T12:57:47.000Z,2806
2022-10-18T12:59:03.000Z,2761
2022-10-18T13:01:34.000Z,2773
2022-10-18T13:02:51.000Z,2738
2022-10-18T13:04:07.000Z,2701
2022-10-18T13:05:23.000Z,2678
2022-10-18T13:06:39.000Z,2651
2022-10-18T13:07:56.000Z,2634
2022-10-18T13:09:12.000Z,2612
2022-10-18T13:10:27.000Z,2593
2022-10-18T13:11:42.000Z,2578
2022-10-18T13:12:58.000Z,2571
2022-10-18T13:14:13.000Z,2568
2022-10-18T13:15:29.000Z,2567
2022-10-18T13:16:45.000Z,2569
2022-10-18T13:18:02.000Z,2576
2022-10-18T13:19:18.000Z,2577
2022-10-18T13:20:34.000Z,2582
2022-10-18T13:21:50.000Z,2579
2022-10-18T13:23:06.000Z,2567
2022-10-18T13:24:23.000Z,2564
2022-10-18T13:25:39.000Z,2564
2022-10-18T13:26:55.000Z,2556
2022-10-18T13:28:11.000Z,2551
2022-10-18T13:29:28.000Z,2550
2022-10-18T13:30:43.000Z,2542
2022-10-18T13:31:59.000Z,2526
2022-10-18T13:33:15.000Z,2514
2022-10-18T13:34:32.000Z,2518
2022-10-18T13:35:48.000Z,2531
2022-10-18T13:37:04.000Z,2536
2022-10-18T13:38:20.000Z,2550
2022-10-18T13:39:36.000Z,2565
2022-10-18T13:40:51.000Z,2583
2022-10-18T13:42:06.000Z,2580
2022-10-18T13:43:21.000Z,2563
2022-10-18T13:44:38.000Z,2549
2022-10-18T13:45:54.000Z,2528
2022-10-18T13:47:10.000Z,2503
2022-10-18T13:48:26.000Z,2507
2022-10-18T13:49:43.000Z,2510
2022-10-18T13:50:59.000Z,2504
2022-10-18T13:52:15.000Z,2497
2022-10-18T13:53:31.000Z,2489
2022-10-18T13:54:47.000Z,2482
2022-10-18T13:56:04.000Z,2480
2022-10-18T13:57:20.000Z,2508
2022-10-18T13:58:36.000Z,2505
2022-10-18T13:59:51.000Z,2478
2022-10-18T14:01:08.000Z,2470
2022-10-18T14:02:24.000Z,2466
2022-10-18T14:03:40.000Z,2461
2022-10-18T14:04:56.000Z,2454
2022-10-18T14:06:13.000Z,2462
2022-10-18T14:07:29.000Z,2470
2022-10-18T14:08:44.000Z,2473
2022-10-18T14:09:59.000Z,2469
2022-10-18T14:11:16.000Z,2458
2022-10-18T14:12:31.000Z,2442
2022-10-18T14:13:46.000Z,2428
2022-10-18T14:15:02.000Z,2415
2022-10-18T14:16:19.000Z,2410
2022-10-18T14:17:35.000Z,2411
2022-10-18T14:18:51.000Z,2419
2022-10-18T14:20:07.000Z,2425
2022-10-18T14:21:23.000Z,2429
2022-10-18T14:22:40.000Z,2420
2022-10-18T14:23:56.000Z,2402
2022-10-18T14:25:12.000Z,2394
2022-10-18T14:26:28.000Z,2385
2022-10-18T14:27:45.000Z,2375
2022-10-18T14:29:01.000Z,2368
2022-10-18T14:30:16.000Z,2363
2022-10-18T14:31:32.000Z,2358
2022-10-18T14:32:49.000Z,2345
2022-10-18T14:34:05.000Z,2345
2022-10-18T14:35:21.000Z,2414
2022-10-18T14:36:37.000Z,2462
2022-10-18T14:37:54.000Z,2494
2022-10-18T14:39:09.000Z,2685
2022-10-18T14:40:24.000Z,2652
2022-10-18T14:41:40.000Z,2376
2022-10-18T14:42:56.000Z,2417
2022-10-18T14:44:12.000Z,2386
2022-10-18T14:45:27.000Z,2373
2022-10-18T14:46:43.000Z,2580
2022-10-18T14:47:59.000Z,2652
2022-10-18T14:49:16.000Z,2388
2022-10-18T14:50:32.000Z,2362
2022-10-18T14:51:48.000Z,2347
2022-10-18T14:53:04.000Z,2351
2022-10-18T14:54:21.000Z,2347
2022-10-18T14:55:37.000Z,2306
2022-10-18T14:56:53.000Z,2273
2022-10-18T14:58:09.000Z,2256
2022-10-18T14:59:26.000Z,2247
2022-10-18T15:00:42.000Z,2234
2022-10-18T15:01:57.000Z,2241
2022-10-18T15:03:13.000Z,2242
2022-10-18T15:04:30.000Z,2242
2022-10-18T15:05:46.000Z,2237
2022-10-18T15:08:18.000Z,2195
2022-10-18T15:09:34.000Z,2178
2022-10-18T15:10:51.000Z,2173
2022-10-18T15:12:06.000Z,2163
2022-10-18T15:13:21.000Z,2164
2022-10-18T15:14:37.000Z,2162
2022-10-18T15:17:10.000Z,2114
2022-10-18T15:18:26.000Z,2089
2022-10-18T15:19:42.000Z,2065
2022-10-18T15:20:59.000Z,2044
2022-10-18T15:22:15.000Z,2034
2022-10-18T15:23:31.000Z,2021
2022-10-18T15:24:47.000Z,2008
2022-10-18T15:26:04.000Z,1991
2022-10-18T15:27:20.000Z,1974
2022-10-18T15:28:36.000Z,1955
2022-10-18T15:29:51.000Z,1943
2022-10-18T15:31:07.000Z,1934
2022-10-18T15:32:24.000Z,1960
2022-10-18T15:33:40.000Z,2030
2022-10-18T15:34:56.000Z,2004
2022-10-18T15:36:12.000Z,1994
2022-10-18T15:37:29.000Z,1993
2022-10-18T15:38:45.000Z,2011
2022-10-18T15:40:00.000Z,2028
2022-10-18T15:41:15.000Z,2033
2022-10-18T15:42:31.000Z,2040
2022-10-18T15:43:47.000Z,2025
2022-10-18T15:46:18.000Z,1978
2022-10-18T15:47:35.000Z,1950
2022-10-18T15:48:51.000Z,1863
2022-10-18T15:50:07.000Z,1704
2022-10-18T15:51:23.000Z,1587
2022-10-18T15:52:40.000Z,1539
2022-10-18T15:53:56.000Z,1505
2022-10-18T15:55:12.000Z,1471
2022-10-18T15:56:28.000Z,1441
2022-10-18T15:57:45.000Z,1410
2022-10-18T15:59:01.000Z,1373
2022-10-18T16:00:17.000Z,1336
2022-10-18T16:01:32.000Z,1298
2022-10-18T16:02:48.000Z,1258
2022-10-18T16:04:05.000Z,1220
2022-10-18T16:05:21.000Z,1182
2022-10-18T16:06:37.000Z,1139
2022-10-18T16:07:53.000Z,1097
2022-10-18T16:09:10.000Z,1054
2022-10-18T16:10:25.000Z,1011
2022-10-18T16:11:40.000Z,968
2022-10-18T16:12:56.000Z,929
2022-10-18T16:14:13.000Z,882
2022-10-18T16:15:29.000Z,839
2022-10-18T16:16:45.000Z,797
2022-10-18T16:18:01.000Z,755
2022-10-18T16:19:18.000Z,712
2022-10-18T16:20:34.000Z,669
2022-10-18T16:21:50.000Z,628
2022-10-18T16:23:06.000Z,585
2022-10-18T16:24:22.000Z,545
2022-10-18T16:25:39.000Z,503
2022-10-18T16:26:55.000Z,464
2022-10-18T16:28:10.000Z,426
2022-10-18T16:29:26.000Z,391
2022-10-18T16:30:43.000Z,356
2022-10-18T16:31:59.000Z,319
2022-10-18T16:33:15.000Z,284
2022-10-18T16:34:31.000Z,250
2022-10-18T16:35:48.000Z,219
2022-10-18T16:37:03.000Z,189
2022-10-18T16:38:18.000Z,165
2022-10-18T16:39:33.000Z,142
2022-10-18T16:40:49.000Z,120
2022-10-18T16:42:04.000Z,102
2022-10-18T16:43:19.000Z,88
2022-10-18T16:44:35.000Z,72
2022-10-18T16:45:52.000Z,59
2022-10-18T16:47:08.000Z,47
2022-10-18T16:48:24.000Z,15
2022-10-18T16:49:40.000Z,214
2022-10-18T16:50:57.000Z,201
2022-10-18T16:52:13.000Z,200
2022-10-18T16:53:29.000Z,192
2022-10-18T16:54:45.000Z,188
2022-10-18T16:56:01.000Z,185
2022-10-18T16:57:18.000Z,187
2022-10-18T16:58:34.000Z,185
2022-10-18T16:59:49.000Z,179
2022-10-18T17:01:05.000Z,177
2022-10-18T17:02:22.000Z,177
2022-10-18T17:03:38.000Z,179
2022-10-18T17:04:54.000Z,179
2022-10-18T17:06:10.000Z,178
2022-10-18T17:07:27.000Z,180
2022-10-18T17:08:42.000Z,179
2022-10-18T17:09:57.000Z,178
2022-10-18T17:11:12.000Z,181
2022-10-18T17:12:28.000Z,179
2022-10-18T17:13:44.000Z,182
2022-10-18T17:15:00.000Z,182
2022-10-18T17:16:16.000Z,179
2022-10-18T17:17:33.000Z,181
2022-10-18T17:18:49.000Z,178
2022-10-18T17:20:05.000Z,182
2022-10-18T17:21:21.000Z,182
2022-10-18T17:22:37.000Z,182
2022-10-18T17:23:54.000Z,182
2022-10-18T17:25:10.000Z,181